sensor_id;sensor_type;location;lat;lon;timestamp;P1;durP1;ratioP1;P2;durP2;ratioP2
43650;SDS011;29247;50.944;5.382;2023-02-28T00:01:11;7.85;;;3.95;;
43650;SDS011;29247;50.944;5.382;2023-02-28T00:03:40;6.60;;;3.63;;
43650;SDS011;29247;50.944;5.382;2023-02-28T00:06:06;7.88;;;4.05;;
43650;SDS011;29247;50.944;5.382;2023-02-28T00:08:35;5.90;;;4.07;;
43650;SDS011;29247;50.944;5.382;2023-02-28T00:11:05;6.40;;;3.83;;
43650;SDS011;29247;50.944;5.382;2023-02-28T00:13:33;8.13;;;4.03;;
43650;SDS011;29247;50.944;5.382;2023-02-28T00:16:09;5.20;;;3.85;;
43650;SDS011;29247;50.944;5.382;2023-02-28T00:18:43;6.28;;;3.97;;
43650;SDS011;29247;50.944;5.382;2023-02-28T00:21:09;6.80;;;3.53;;
43650;SDS011;29247;50.944;5.382;2023-02-28T00:23:35;8.13;;;4.03;;
43650;SDS011;29247;50.944;5.382;2023-02-28T00:26:03;9.10;;;4.18;;
43650;SDS011;29247;50.944;5.382;2023-02-28T00:28:30;5.40;;;3.63;;
43650;SDS011;29247;50.944;5.382;2023-02-28T00:30:56;7.53;;;3.67;;
43650;SDS011;29247;50.944;5.382;2023-02-28T00:33:22;8.07;;;4.03;;
43650;SDS011;29247;50.944;5.382;2023-02-28T00:35:50;6.97;;;3.75;;
43650;SDS011;29247;50.944;5.382;2023-02-28T00:38:19;9.43;;;4.25;;
43650;SDS011;29247;50.944;5.382;2023-02-28T00:40:44;9.55;;;4.10;;
43650;SDS011;29247;50.944;5.382;2023-02-28T00:43:13;6.38;;;3.40;;
43650;SDS011;29247;50.944;5.382;2023-02-28T00:45:41;6.60;;;4.03;;
43650;SDS011;29247;50.944;5.382;2023-02-28T00:48:07;5.70;;;3.88;;
43650;SDS011;29247;50.944;5.382;2023-02-28T00:50:32;8.77;;;4.03;;
43650;SDS011;29247;50.944;5.382;2023-02-28T00:53:01;6.47;;;4.00;;
43650;SDS011;29247;50.944;5.382;2023-02-28T00:55:27;5.72;;;3.53;;
43650;SDS011;29247;50.944;5.382;2023-02-28T00:57:55;7.28;;;3.70;;
43650;SDS011;29247;50.944;5.382;2023-02-28T01:00:20;6.38;;;3.85;;
43650;SDS011;29247;50.944;5.382;2023-02-28T01:02:46;5.35;;;3.25;;
43650;SDS011;29247;50.944;5.382;2023-02-28T01:05:12;13.10;;;4.15;;
43650;SDS011;29247;50.944;5.382;2023-02-28T01:07:38;4.80;;;4.20;;
43650;SDS011;29247;50.944;5.382;2023-02-28T01:10:04;6.68;;;4.03;;
43650;SDS011;29247;50.944;5.382;2023-02-28T01:12:30;6.20;;;3.53;;
43650;SDS011;29247;50.944;5.382;2023-02-28T01:14:56;11.05;;;3.85;;
43650;SDS011;29247;50.944;5.382;2023-02-28T01:17:22;8.13;;;4.18;;
43650;SDS011;29247;50.944;5.382;2023-02-28T01:19:52;7.22;;;4.18;;
43650;SDS011;29247;50.944;5.382;2023-02-28T01:22:21;6.13;;;3.47;;
43650;SDS011;29247;50.944;5.382;2023-02-28T01:24:49;7.38;;;4.32;;
43650;SDS011;29247;50.944;5.382;2023-02-28T01:27:17;5.97;;;3.60;;
43650;SDS011;29247;50.944;5.382;2023-02-28T01:29:43;7.97;;;4.65;;
43650;SDS011;29247;50.944;5.382;2023-02-28T01:32:09;7.82;;;3.97;;
43650;SDS011;29247;50.944;5.382;2023-02-28T01:34:35;8.63;;;3.40;;
43650;SDS011;29247;50.944;5.382;2023-02-28T01:37:01;7.03;;;3.30;;
43650;SDS011;29247;50.944;5.382;2023-02-28T01:39:28;5.95;;;3.63;;
43650;SDS011;29247;50.944;5.382;2023-02-28T01:41:54;4.22;;;3.08;;
43650;SDS011;29247;50.944;5.382;2023-02-28T01:47:22;4.00;;;3.25;;
43650;SDS011;29247;50.944;5.382;2023-02-28T01:49:58;5.25;;;3.58;;
43650;SDS011;29247;50.944;5.382;2023-02-28T01:52:25;5.50;;;3.40;;
43650;SDS011;29247;50.944;5.382;2023-02-28T01:54:55;4.50;;;3.40;;
43650;SDS011;29247;50.944;5.382;2023-02-28T01:57:30;8.02;;;3.60;;
43650;SDS011;29247;50.944;5.382;2023-02-28T02:00:12;4.97;;;3.40;;
43650;SDS011;29247;50.944;5.382;2023-02-28T02:02:41;5.00;;;3.83;;
43650;SDS011;29247;50.944;5.382;2023-02-28T02:07:41;3.75;;;3.28;;
43650;SDS011;29247;50.944;5.382;2023-02-28T02:10:14;7.50;;;3.80;;
43650;SDS011;29247;50.944;5.382;2023-02-28T02:18:40;9.02;;;3.80;;
43650;SDS011;29247;50.944;5.382;2023-02-28T02:33:37;7.70;;;4.18;;
43650;SDS011;29247;50.944;5.382;2023-02-28T02:36:16;7.90;;;3.95;;
43650;SDS011;29247;50.944;5.382;2023-02-28T02:47:11;5.03;;;3.03;;
43650;SDS011;29247;50.944;5.382;2023-02-28T02:49:43;7.57;;;4.38;;
43650;SDS011;29247;50.944;5.382;2023-02-28T02:52:15;7.78;;;4.32;;
43650;SDS011;29247;50.944;5.382;2023-02-28T02:54:47;6.50;;;4.82;;
43650;SDS011;29247;50.944;5.382;2023-02-28T02:57:20;10.85;;;4.10;;
43650;SDS011;29247;50.944;5.382;2023-02-28T02:59:54;7.07;;;4.32;;
43650;SDS011;29247;50.944;5.382;2023-02-28T03:02:26;6.03;;;4.25;;
43650;SDS011;29247;50.944;5.382;2023-02-28T03:04:59;8.90;;;4.43;;
43650;SDS011;29247;50.944;5.382;2023-02-28T03:07:30;5.93;;;3.78;;
43650;SDS011;29247;50.944;5.382;2023-02-28T03:09:58;5.95;;;3.75;;
43650;SDS011;29247;50.944;5.382;2023-02-28T03:12:31;7.07;;;4.50;;
43650;SDS011;29247;50.944;5.382;2023-02-28T03:20:15;4.50;;;3.70;;
43650;SDS011;29247;50.944;5.382;2023-02-28T03:22:52;6.25;;;4.28;;
43650;SDS011;29247;50.944;5.382;2023-02-28T03:28:22;9.85;;;4.30;;
43650;SDS011;29247;50.944;5.382;2023-02-28T03:31:12;4.30;;;3.15;;
43650;SDS011;29247;50.944;5.382;2023-02-28T03:34:20;12.38;;;4.65;;
43650;SDS011;29247;50.944;5.382;2023-02-28T03:37:13;8.30;;;3.95;;
43650;SDS011;29247;50.944;5.382;2023-02-28T03:39:47;6.28;;;3.83;;
43650;SDS011;29247;50.944;5.382;2023-02-28T03:42:19;5.90;;;4.40;;
43650;SDS011;29247;50.944;5.382;2023-02-28T03:44:50;5.97;;;3.75;;
43650;SDS011;29247;50.944;5.382;2023-02-28T03:47:31;7.95;;;4.47;;
43650;SDS011;29247;50.944;5.382;2023-02-28T03:50:03;9.43;;;4.20;;
43650;SDS011;29247;50.944;5.382;2023-02-28T03:52:47;12.68;;;4.85;;
43650;SDS011;29247;50.944;5.382;2023-02-28T03:55:28;8.23;;;4.28;;
43650;SDS011;29247;50.944;5.382;2023-02-28T03:58:11;7.90;;;4.10;;
43650;SDS011;29247;50.944;5.382;2023-02-28T04:01:08;6.90;;;4.65;;
43650;SDS011;29247;50.944;5.382;2023-02-28T04:03:44;9.27;;;4.97;;
43650;SDS011;29247;50.944;5.382;2023-02-28T04:06:21;8.75;;;4.63;;
43650;SDS011;29247;50.944;5.382;2023-02-28T04:08:50;6.93;;;4.85;;
43650;SDS011;29247;50.944;5.382;2023-02-28T04:13:41;10.40;;;5.07;;
43650;SDS011;29247;50.944;5.382;2023-02-28T04:16:08;7.05;;;4.40;;
43650;SDS011;29247;50.944;5.382;2023-02-28T04:18:40;7.22;;;4.57;;
43650;SDS011;29247;50.944;5.382;2023-02-28T04:23:33;7.22;;;4.55;;
43650;SDS011;29247;50.944;5.382;2023-02-28T04:25:59;7.70;;;5.25;;
43650;SDS011;29247;50.944;5.382;2023-02-28T04:28:25;6.35;;;4.18;;
43650;SDS011;29247;50.944;5.382;2023-02-28T04:30:56;12.05;;;4.90;;
43650;SDS011;29247;50.944;5.382;2023-02-28T04:33:22;6.40;;;4.13;;
43650;SDS011;29247;50.944;5.382;2023-02-28T04:35:57;7.70;;;4.15;;
43650;SDS011;29247;50.944;5.382;2023-02-28T04:38:23;5.68;;;4.35;;
43650;SDS011;29247;50.944;5.382;2023-02-28T04:40:49;11.43;;;4.85;;
43650;SDS011;29247;50.944;5.382;2023-02-28T04:43:15;4.93;;;3.63;;
43650;SDS011;29247;50.944;5.382;2023-02-28T04:45:40;13.55;;;5.22;;
43650;SDS011;29247;50.944;5.382;2023-02-28T04:48:06;10.52;;;4.85;;
43650;SDS011;29247;50.944;5.382;2023-02-28T04:50:34;11.90;;;5.32;;
43650;SDS011;29247;50.944;5.382;2023-02-28T04:53:00;9.02;;;5.03;;
43650;SDS011;29247;50.944;5.382;2023-02-28T04:55:25;7.57;;;4.53;;
43650;SDS011;29247;50.944;5.382;2023-02-28T04:57:56;8.63;;;4.53;;
43650;SDS011;29247;50.944;5.382;2023-02-28T05:00:21;8.93;;;4.45;;
43650;SDS011;29247;50.944;5.382;2023-02-28T05:02:49;8.43;;;4.88;;
43650;SDS011;29247;50.944;5.382;2023-02-28T05:05:15;6.65;;;4.47;;
43650;SDS011;29247;50.944;5.382;2023-02-28T05:07:44;7.95;;;4.47;;
43650;SDS011;29247;50.944;5.382;2023-02-28T05:10:10;10.35;;;4.20;;
43650;SDS011;29247;50.944;5.382;2023-02-28T05:12:36;9.07;;;4.43;;
43650;SDS011;29247;50.944;5.382;2023-02-28T05:15:04;9.55;;;4.53;;
43650;SDS011;29247;50.944;5.382;2023-02-28T05:17:30;8.15;;;4.65;;
43650;SDS011;29247;50.944;5.382;2023-02-28T05:19:56;7.25;;;4.50;;
43650;SDS011;29247;50.944;5.382;2023-02-28T05:22:22;9.68;;;4.97;;
43650;SDS011;29247;50.944;5.382;2023-02-28T05:24:47;7.05;;;4.80;;
43650;SDS011;29247;50.944;5.382;2023-02-28T05:27:18;7.25;;;4.15;;
43650;SDS011;29247;50.944;5.382;2023-02-28T05:29:46;6.15;;;4.55;;
43650;SDS011;29247;50.944;5.382;2023-02-28T05:32:14;8.63;;;4.90;;
43650;SDS011;29247;50.944;5.382;2023-02-28T05:34:45;10.48;;;4.95;;
43650;SDS011;29247;50.944;5.382;2023-02-28T05:37:11;8.07;;;5.05;;
43650;SDS011;29247;50.944;5.382;2023-02-28T05:39:38;10.00;;;5.18;;
43650;SDS011;29247;50.944;5.382;2023-02-28T05:42:04;7.28;;;4.72;;
43650;SDS011;29247;50.944;5.382;2023-02-28T05:44:29;7.07;;;4.85;;
43650;SDS011;29247;50.944;5.382;2023-02-28T05:46:55;10.05;;;4.25;;
43650;SDS011;29247;50.944;5.382;2023-02-28T05:49:21;8.30;;;5.45;;
43650;SDS011;29247;50.944;5.382;2023-02-28T05:51:47;8.23;;;4.85;;
43650;SDS011;29247;50.944;5.382;2023-02-28T05:54:15;10.90;;;5.05;;
43650;SDS011;29247;50.944;5.382;2023-02-28T05:56:43;8.13;;;5.82;;
43650;SDS011;29247;50.944;5.382;2023-02-28T05:59:10;9.40;;;5.53;;
43650;SDS011;29247;50.944;5.382;2023-02-28T06:01:41;10.25;;;5.20;;
43650;SDS011;29247;50.944;5.382;2023-02-28T06:04:13;7.10;;;4.93;;
43650;SDS011;29247;50.944;5.382;2023-02-28T06:06:44;10.55;;;5.75;;
43650;SDS011;29247;50.944;5.382;2023-02-28T06:09:18;15.00;;;5.82;;
43650;SDS011;29247;50.944;5.382;2023-02-28T06:11:44;9.80;;;5.03;;
43650;SDS011;29247;50.944;5.382;2023-02-28T06:14:18;11.00;;;4.95;;
43650;SDS011;29247;50.944;5.382;2023-02-28T06:16:47;11.75;;;5.32;;
43650;SDS011;29247;50.944;5.382;2023-02-28T06:19:13;8.13;;;5.15;;
43650;SDS011;29247;50.944;5.382;2023-02-28T06:21:40;10.13;;;5.40;;
43650;SDS011;29247;50.944;5.382;2023-02-28T06:24:08;7.72;;;5.50;;
43650;SDS011;29247;50.944;5.382;2023-02-28T06:26:36;7.47;;;5.40;;
43650;SDS011;29247;50.944;5.382;2023-02-28T06:29:01;11.73;;;5.10;;
43650;SDS011;29247;50.944;5.382;2023-02-28T06:31:31;9.20;;;5.05;;
43650;SDS011;29247;50.944;5.382;2023-02-28T06:33:57;6.80;;;4.50;;
43650;SDS011;29247;50.944;5.382;2023-02-28T06:36:25;8.25;;;5.30;;
43650;SDS011;29247;50.944;5.382;2023-02-28T06:38:55;8.55;;;4.97;;
43650;SDS011;29247;50.944;5.382;2023-02-28T06:41:24;8.07;;;5.45;;
43650;SDS011;29247;50.944;5.382;2023-02-28T06:43:53;7.93;;;4.75;;
43650;SDS011;29247;50.944;5.382;2023-02-28T06:46:19;9.98;;;5.18;;
43650;SDS011;29247;50.944;5.382;2023-02-28T06:48:47;14.13;;;5.25;;
43650;SDS011;29247;50.944;5.382;2023-02-28T06:51:16;7.32;;;4.22;;
43650;SDS011;29247;50.944;5.382;2023-02-28T06:53:45;9.63;;;5.45;;
43650;SDS011;29247;50.944;5.382;2023-02-28T06:56:12;5.60;;;4.53;;
43650;SDS011;29247;50.944;5.382;2023-02-28T06:58:45;12.98;;;5.88;;
43650;SDS011;29247;50.944;5.382;2023-02-28T07:01:13;9.35;;;4.82;;
43650;SDS011;29247;50.944;5.382;2023-02-28T07:03:41;14.93;;;5.72;;
43650;SDS011;29247;50.944;5.382;2023-02-28T07:06:10;8.65;;;4.75;;
43650;SDS011;29247;50.944;5.382;2023-02-28T07:08:36;10.48;;;5.13;;
43650;SDS011;29247;50.944;5.382;2023-02-28T07:11:01;8.55;;;5.07;;
43650;SDS011;29247;50.944;5.382;2023-02-28T07:13:28;9.90;;;4.95;;
43650;SDS011;29247;50.944;5.382;2023-02-28T07:16:00;13.10;;;5.55;;
43650;SDS011;29247;50.944;5.382;2023-02-28T07:18:31;12.80;;;4.82;;
43650;SDS011;29247;50.944;5.382;2023-02-28T07:20:57;7.13;;;4.63;;
43650;SDS011;29247;50.944;5.382;2023-02-28T07:23:24;6.40;;;4.57;;
43650;SDS011;29247;50.944;5.382;2023-02-28T07:25:52;6.75;;;4.47;;
43650;SDS011;29247;50.944;5.382;2023-02-28T07:28:21;10.85;;;4.78;;
43650;SDS011;29247;50.944;5.382;2023-02-28T07:30:46;8.35;;;4.85;;
43650;SDS011;29247;50.944;5.382;2023-02-28T07:33:13;7.30;;;4.30;;
43650;SDS011;29247;50.944;5.382;2023-02-28T07:35:39;9.88;;;4.78;;
43650;SDS011;29247;50.944;5.382;2023-02-28T07:38:05;6.43;;;3.83;;
43650;SDS011;29247;50.944;5.382;2023-02-28T07:40:35;6.38;;;4.32;;
43650;SDS011;29247;50.944;5.382;2023-02-28T07:43:01;5.70;;;3.50;;
43650;SDS011;29247;50.944;5.382;2023-02-28T07:45:29;9.10;;;4.93;;
43650;SDS011;29247;50.944;5.382;2023-02-28T07:47:56;4.32;;;3.60;;
43650;SDS011;29247;50.944;5.382;2023-02-28T07:50:24;7.75;;;3.55;;
43650;SDS011;29247;50.944;5.382;2023-02-28T07:52:50;8.95;;;3.90;;
43650;SDS011;29247;50.944;5.382;2023-02-28T07:55:16;7.25;;;3.80;;
43650;SDS011;29247;50.944;5.382;2023-02-28T07:57:42;11.02;;;4.47;;
43650;SDS011;29247;50.944;5.382;2023-02-28T08:00:11;8.40;;;4.50;;
43650;SDS011;29247;50.944;5.382;2023-02-28T08:02:38;6.90;;;3.45;;
43650;SDS011;29247;50.944;5.382;2023-02-28T08:05:05;9.15;;;3.75;;
43650;SDS011;29247;50.944;5.382;2023-02-28T08:07:31;9.60;;;3.63;;
43650;SDS011;29247;50.944;5.382;2023-02-28T08:09:58;7.82;;;3.65;;
43650;SDS011;29247;50.944;5.382;2023-02-28T08:12:24;8.88;;;3.72;;
43650;SDS011;29247;50.944;5.382;2023-02-28T08:14:52;10.38;;;3.95;;
43650;SDS011;29247;50.944;5.382;2023-02-28T08:17:20;7.25;;;4.57;;
43650;SDS011;29247;50.944;5.382;2023-02-28T08:19:46;5.38;;;3.40;;
43650;SDS011;29247;50.944;5.382;2023-02-28T08:22:14;6.63;;;3.65;;
43650;SDS011;29247;50.944;5.382;2023-02-28T08:24:41;5.03;;;3.15;;
43650;SDS011;29247;50.944;5.382;2023-02-28T08:27:09;5.38;;;3.22;;
43650;SDS011;29247;50.944;5.382;2023-02-28T08:29:38;7.40;;;3.38;;
43650;SDS011;29247;50.944;5.382;2023-02-28T08:32:07;5.82;;;3.40;;
43650;SDS011;29247;50.944;5.382;2023-02-28T08:34:32;7.13;;;2.97;;
43650;SDS011;29247;50.944;5.382;2023-02-28T08:36:58;5.45;;;3.10;;
43650;SDS011;29247;50.944;5.382;2023-02-28T08:39:24;7.55;;;2.65;;
43650;SDS011;29247;50.944;5.382;2023-02-28T08:41:52;4.38;;;3.33;;
43650;SDS011;29247;50.944;5.382;2023-02-28T08:44:20;5.72;;;3.42;;
43650;SDS011;29247;50.944;5.382;2023-02-28T08:46:48;6.85;;;3.65;;
43650;SDS011;29247;50.944;5.382;2023-02-28T08:49:13;4.03;;;2.63;;
43650;SDS011;29247;50.944;5.382;2023-02-28T08:51:42;4.88;;;3.95;;
43650;SDS011;29247;50.944;5.382;2023-02-28T08:54:08;4.32;;;2.53;;
43650;SDS011;29247;50.944;5.382;2023-02-28T08:56:34;7.15;;;3.20;;
43650;SDS011;29247;50.944;5.382;2023-02-28T08:59:02;5.53;;;2.97;;
43650;SDS011;29247;50.944;5.382;2023-02-28T09:01:32;5.03;;;2.63;;
43650;SDS011;29247;50.944;5.382;2023-02-28T09:04:03;5.53;;;2.90;;
43650;SDS011;29247;50.944;5.382;2023-02-28T09:06:33;5.47;;;2.65;;
43650;SDS011;29247;50.944;5.382;2023-02-28T09:08:59;5.68;;;3.35;;
43650;SDS011;29247;50.944;5.382;2023-02-28T09:11:26;3.72;;;2.70;;
43650;SDS011;29247;50.944;5.382;2023-02-28T09:13:52;4.97;;;2.97;;
43650;SDS011;29247;50.944;5.382;2023-02-28T09:16:21;6.13;;;2.70;;
43650;SDS011;29247;50.944;5.382;2023-02-28T09:18:47;4.57;;;2.45;;
43650;SDS011;29247;50.944;5.382;2023-02-28T09:21:16;4.28;;;2.30;;
43650;SDS011;29247;50.944;5.382;2023-02-28T09:23:44;3.15;;;1.98;;
43650;SDS011;29247;50.944;5.382;2023-02-28T09:26:15;3.03;;;1.83;;
43650;SDS011;29247;50.944;5.382;2023-02-28T09:28:42;3.45;;;2.03;;
43650;SDS011;29247;50.944;5.382;2023-02-28T09:31:10;5.05;;;1.88;;
43650;SDS011;29247;50.944;5.382;2023-02-28T09:33:45;2.67;;;1.75;;
43650;SDS011;29247;50.944;5.382;2023-02-28T09:36:13;3.05;;;1.70;;
43650;SDS011;29247;50.944;5.382;2023-02-28T09:38:38;3.83;;;1.83;;
43650;SDS011;29247;50.944;5.382;2023-02-28T09:41:11;2.92;;;1.90;;
43650;SDS011;29247;50.944;5.382;2023-02-28T09:43:47;2.42;;;1.58;;
43650;SDS011;29247;50.944;5.382;2023-02-28T09:46:25;3.15;;;1.75;;
43650;SDS011;29247;50.944;5.382;2023-02-28T09:49:16;4.65;;;1.50;;
43650;SDS011;29247;50.944;5.382;2023-02-28T09:54:34;3.08;;;2.00;;
43650;SDS011;29247;50.944;5.382;2023-02-28T09:57:08;1.88;;;1.38;;
43650;SDS011;29247;50.944;5.382;2023-02-28T10:02:17;3.13;;;1.80;;
43650;SDS011;29247;50.944;5.382;2023-02-28T10:04:58;4.53;;;1.88;;
43650;SDS011;29247;50.944;5.382;2023-02-28T10:10:28;1.60;;;1.50;;
43650;SDS011;29247;50.944;5.382;2023-02-28T10:13:20;3.40;;;1.75;;
43650;SDS011;29247;50.944;5.382;2023-02-28T10:16:11;3.15;;;1.70;;
43650;SDS011;29247;50.944;5.382;2023-02-28T10:18:59;7.40;;;2.20;;
43650;SDS011;29247;50.944;5.382;2023-02-28T10:21:31;3.53;;;1.65;;
43650;SDS011;29247;50.944;5.382;2023-02-28T10:27:21;2.70;;;1.70;;
43650;SDS011;29247;50.944;5.382;2023-02-28T10:30:03;1.45;;;1.17;;
43650;SDS011;29247;50.944;5.382;2023-02-28T10:32:34;2.05;;;1.52;;
43650;SDS011;29247;50.944;5.382;2023-02-28T10:37:37;4.10;;;1.83;;
43650;SDS011;29247;50.944;5.382;2023-02-28T10:40:04;2.13;;;1.40;;
43650;SDS011;29247;50.944;5.382;2023-02-28T10:42:42;2.40;;;1.77;;
43650;SDS011;29247;50.944;5.382;2023-02-28T10:45:24;2.35;;;1.42;;
43650;SDS011;29247;50.944;5.382;2023-02-28T10:50:30;2.10;;;1.45;;
43650;SDS011;29247;50.944;5.382;2023-02-28T11:01:41;1.40;;;1.30;;
43650;SDS011;29247;50.944;5.382;2023-02-28T11:04:43;1.30;;;1.05;;
43650;SDS011;29247;50.944;5.382;2023-02-28T11:07:05;2.45;;;1.35;;
43650;SDS011;29247;50.944;5.382;2023-02-28T11:09:49;3.53;;;1.40;;
43650;SDS011;29247;50.944;5.382;2023-02-28T11:12:25;2.22;;;1.58;;
43650;SDS011;29247;50.944;5.382;2023-02-28T11:14:58;4.18;;;1.10;;
43650;SDS011;29247;50.944;5.382;2023-02-28T11:17:29;1.92;;;1.50;;
43650;SDS011;29247;50.944;5.382;2023-02-28T11:20:01;2.85;;;1.40;;
43650;SDS011;29247;50.944;5.382;2023-02-28T11:22:32;2.08;;;1.80;;
43650;SDS011;29247;50.944;5.382;2023-02-28T11:27:59;2.33;;;1.30;;
43650;SDS011;29247;50.944;5.382;2023-02-28T11:30:31;2.83;;;1.25;;
43650;SDS011;29247;50.944;5.382;2023-02-28T11:33:00;1.55;;;1.27;;
43650;SDS011;29247;50.944;5.382;2023-02-28T11:35:40;2.45;;;1.55;;
43650;SDS011;29247;50.944;5.382;2023-02-28T11:38:11;4.13;;;1.35;;
43650;SDS011;29247;50.944;5.382;2023-02-28T11:46:47;3.13;;;1.67;;
43650;SDS011;29247;50.944;5.382;2023-02-28T11:49:22;2.25;;;1.70;;
43650;SDS011;29247;50.944;5.382;2023-02-28T11:51:58;2.42;;;1.52;;
43650;SDS011;29247;50.944;5.382;2023-02-28T12:00:49;1.42;;;1.20;;
43650;SDS011;29247;50.944;5.382;2023-02-28T12:03:24;2.13;;;1.73;;
43650;SDS011;29247;50.944;5.382;2023-02-28T12:05:56;1.83;;;1.40;;
43650;SDS011;29247;50.944;5.382;2023-02-28T12:11:19;1.85;;;1.27;;
43650;SDS011;29247;50.944;5.382;2023-02-28T12:22:36;2.95;;;1.50;;
43650;SDS011;29247;50.944;5.382;2023-02-28T12:28:14;3.53;;;1.88;;
43650;SDS011;29247;50.944;5.382;2023-02-28T12:30:53;1.90;;;1.40;;
43650;SDS011;29247;50.944;5.382;2023-02-28T12:34:03;1.92;;;1.55;;
43650;SDS011;29247;50.944;5.382;2023-02-28T12:36:37;3.30;;;2.03;;
43650;SDS011;29247;50.944;5.382;2023-02-28T12:46:51;2.08;;;1.48;;
43650;SDS011;29247;50.944;5.382;2023-02-28T12:51:57;2.88;;;1.80;;
43650;SDS011;29247;50.944;5.382;2023-02-28T12:54:30;3.15;;;2.22;;
43650;SDS011;29247;50.944;5.382;2023-02-28T12:59:54;2.28;;;1.67;;
43650;SDS011;29247;50.944;5.382;2023-02-28T13:02:40;2.80;;;2.00;;
43650;SDS011;29247;50.944;5.382;2023-02-28T13:05:24;3.10;;;1.90;;
43650;SDS011;29247;50.944;5.382;2023-02-28T13:08:24;4.32;;;2.30;;
43650;SDS011;29247;50.944;5.382;2023-02-28T13:11:05;2.88;;;1.83;;
43650;SDS011;29247;50.944;5.382;2023-02-28T13:13:31;3.65;;;2.28;;
43650;SDS011;29247;50.944;5.382;2023-02-28T13:18:32;7.88;;;2.40;;
43650;SDS011;29247;50.944;5.382;2023-02-28T13:20:58;2.90;;;1.60;;
43650;SDS011;29247;50.944;5.382;2023-02-28T13:23:38;2.60;;;2.30;;
43650;SDS011;29247;50.944;5.382;2023-02-28T13:26:22;3.10;;;2.38;;
43650;SDS011;29247;50.944;5.382;2023-02-28T13:31:13;1.90;;;1.60;;
43650;SDS011;29247;50.944;5.382;2023-02-28T13:38:43;4.07;;;1.90;;
43650;SDS011;29247;50.944;5.382;2023-02-28T13:44:04;7.80;;;1.80;;
43650;SDS011;29247;50.944;5.382;2023-02-28T13:54:39;2.47;;;2.20;;
43650;SDS011;29247;50.944;5.382;2023-02-28T14:05:01;3.30;;;1.98;;
43650;SDS011;29247;50.944;5.382;2023-02-28T14:07:40;3.13;;;2.10;;
43650;SDS011;29247;50.944;5.382;2023-02-28T14:10:21;3.28;;;2.00;;
43650;SDS011;29247;50.944;5.382;2023-02-28T14:15:39;3.53;;;2.50;;
43650;SDS011;29247;50.944;5.382;2023-02-28T14:18:19;5.35;;;2.13;;
43650;SDS011;29247;50.944;5.382;2023-02-28T14:20:54;4.03;;;2.22;;
43650;SDS011;29247;50.944;5.382;2023-02-28T14:32:15;2.10;;;1.90;;
43650;SDS011;29247;50.944;5.382;2023-02-28T14:37:49;3.15;;;1.73;;
43650;SDS011;29247;50.944;5.382;2023-02-28T14:40:16;4.88;;;2.22;;
43650;SDS011;29247;50.944;5.382;2023-02-28T14:42:58;4.18;;;2.28;;
43650;SDS011;29247;50.944;5.382;2023-02-28T14:45:33;4.07;;;2.20;;
43650;SDS011;29247;50.944;5.382;2023-02-28T14:48:05;4.53;;;2.20;;
43650;SDS011;29247;50.944;5.382;2023-02-28T14:50:35;2.17;;;1.60;;
43650;SDS011;29247;50.944;5.382;2023-02-28T14:53:03;2.95;;;1.92;;
43650;SDS011;29247;50.944;5.382;2023-02-28T14:55:32;2.67;;;1.65;;
43650;SDS011;29247;50.944;5.382;2023-02-28T14:58:04;4.15;;;2.25;;
43650;SDS011;29247;50.944;5.382;2023-02-28T15:00:48;3.15;;;1.70;;
43650;SDS011;29247;50.944;5.382;2023-02-28T15:05:57;1.88;;;1.70;;
43650;SDS011;29247;50.944;5.382;2023-02-28T15:08:24;4.85;;;1.90;;
43650;SDS011;29247;50.944;5.382;2023-02-28T15:13:26;8.80;;;2.10;;
43650;SDS011;29247;50.944;5.382;2023-02-28T15:16:20;4.72;;;2.17;;
43650;SDS011;29247;50.944;5.382;2023-02-28T15:21:21;7.45;;;2.08;;
43650;SDS011;29247;50.944;5.382;2023-02-28T15:23:54;3.60;;;2.10;;
43650;SDS011;29247;50.944;5.382;2023-02-28T15:26:29;9.55;;;2.55;;
43650;SDS011;29247;50.944;5.382;2023-02-28T15:29:04;3.47;;;2.15;;
43650;SDS011;29247;50.944;5.382;2023-02-28T15:31:37;4.32;;;2.20;;
43650;SDS011;29247;50.944;5.382;2023-02-28T15:34:26;9.43;;;2.65;;
43650;SDS011;29247;50.944;5.382;2023-02-28T15:36:53;3.58;;;2.40;;
43650;SDS011;29247;50.944;5.382;2023-02-28T15:39:23;2.53;;;1.90;;
43650;SDS011;29247;50.944;5.382;2023-02-28T15:41:52;3.70;;;1.92;;
43650;SDS011;29247;50.944;5.382;2023-02-28T15:44:35;4.03;;;2.35;;
43650;SDS011;29247;50.944;5.382;2023-02-28T15:49:46;2.60;;;1.98;;
43650;SDS011;29247;50.944;5.382;2023-02-28T15:52:16;3.25;;;2.13;;
43650;SDS011;29247;50.944;5.382;2023-02-28T15:55:22;3.53;;;2.35;;
43650;SDS011;29247;50.944;5.382;2023-02-28T15:57:53;2.67;;;1.58;;
43650;SDS011;29247;50.944;5.382;2023-02-28T16:02:52;2.50;;;1.73;;
43650;SDS011;29247;50.944;5.382;2023-02-28T16:05:25;2.38;;;1.98;;
43650;SDS011;29247;50.944;5.382;2023-02-28T16:08:06;3.40;;;1.83;;
43650;SDS011;29247;50.944;5.382;2023-02-28T16:10:38;5.53;;;2.35;;
43650;SDS011;29247;50.944;5.382;2023-02-28T16:13:04;5.45;;;2.03;;
43650;SDS011;29247;50.944;5.382;2023-02-28T16:15:34;1.85;;;1.70;;
43650;SDS011;29247;50.944;5.382;2023-02-28T16:18:07;5.95;;;2.00;;
43650;SDS011;29247;50.944;5.382;2023-02-28T16:20:37;3.30;;;1.92;;
43650;SDS011;29247;50.944;5.382;2023-02-28T16:23:06;3.30;;;2.20;;
43650;SDS011;29247;50.944;5.382;2023-02-28T16:25:34;2.40;;;2.10;;
43650;SDS011;29247;50.944;5.382;2023-02-28T16:28:23;4.25;;;2.13;;
43650;SDS011;29247;50.944;5.382;2023-02-28T16:30:56;2.17;;;1.85;;
43650;SDS011;29247;50.944;5.382;2023-02-28T16:33:22;4.93;;;2.42;;
43650;SDS011;29247;50.944;5.382;2023-02-28T16:35:47;3.80;;;2.50;;
43650;SDS011;29247;50.944;5.382;2023-02-28T16:38:16;4.88;;;2.22;;
43650;SDS011;29247;50.944;5.382;2023-02-28T16:40:42;3.03;;;2.40;;
43650;SDS011;29247;50.944;5.382;2023-02-28T16:43:09;4.45;;;2.10;;
43650;SDS011;29247;50.944;5.382;2023-02-28T16:45:48;2.33;;;2.10;;
43650;SDS011;29247;50.944;5.382;2023-02-28T16:48:19;5.05;;;2.67;;
43650;SDS011;29247;50.944;5.382;2023-02-28T16:50:48;4.55;;;2.22;;
43650;SDS011;29247;50.944;5.382;2023-02-28T16:53:14;6.38;;;2.40;;
43650;SDS011;29247;50.944;5.382;2023-02-28T16:55:40;2.58;;;2.28;;
43650;SDS011;29247;50.944;5.382;2023-02-28T16:58:06;3.88;;;2.10;;
43650;SDS011;29247;50.944;5.382;2023-02-28T17:00:38;5.35;;;3.22;;
43650;SDS011;29247;50.944;5.382;2023-02-28T17:03:04;5.70;;;3.30;;
43650;SDS011;29247;50.944;5.382;2023-02-28T17:05:33;8.55;;;3.25;;
43650;SDS011;29247;50.944;5.382;2023-02-28T17:08:03;4.80;;;3.03;;
43650;SDS011;29247;50.944;5.382;2023-02-28T17:10:29;4.80;;;3.10;;
43650;SDS011;29247;50.944;5.382;2023-02-28T17:12:55;6.55;;;3.10;;
43650;SDS011;29247;50.944;5.382;2023-02-28T17:15:20;3.95;;;2.45;;
43650;SDS011;29247;50.944;5.382;2023-02-28T17:17:47;8.10;;;3.05;;
43650;SDS011;29247;50.944;5.382;2023-02-28T17:20:22;4.35;;;2.70;;
43650;SDS011;29247;50.944;5.382;2023-02-28T17:22:48;8.75;;;2.67;;
43650;SDS011;29247;50.944;5.382;2023-02-28T17:25:17;4.25;;;2.72;;
43650;SDS011;29247;50.944;5.382;2023-02-28T17:27:43;5.90;;;3.22;;
43650;SDS011;29247;50.944;5.382;2023-02-28T17:30:22;7.82;;;3.00;;
43650;SDS011;29247;50.944;5.382;2023-02-28T17:32:52;6.10;;;2.78;;
43650;SDS011;29247;50.944;5.382;2023-02-28T17:35:21;4.85;;;2.72;;
43650;SDS011;29247;50.944;5.382;2023-02-28T17:37:47;5.30;;;2.30;;
43650;SDS011;29247;50.944;5.382;2023-02-28T17:40:18;3.90;;;2.20;;
43650;SDS011;29247;50.944;5.382;2023-02-28T17:42:45;4.40;;;2.67;;
43650;SDS011;29247;50.944;5.382;2023-02-28T17:45:12;2.70;;;2.33;;
43650;SDS011;29247;50.944;5.382;2023-02-28T17:47:38;3.10;;;2.22;;
43650;SDS011;29247;50.944;5.382;2023-02-28T17:50:09;3.53;;;2.03;;
43650;SDS011;29247;50.944;5.382;2023-02-28T17:52:38;4.60;;;2.03;;
43650;SDS011;29247;50.944;5.382;2023-02-28T17:55:07;3.55;;;2.30;;
43650;SDS011;29247;50.944;5.382;2023-02-28T17:57:37;4.32;;;2.95;;